createdAt,value
2019-04-11T00:01:01.144Z,6.68
2019-04-11T00:03:30.888Z,6.82
2019-04-11T00:06:01.398Z,6.86
2019-04-11T00:08:32.130Z,6.78
2019-04-11T00:11:01.816Z,6.79
2019-04-11T00:13:33.432Z,6.75
2019-04-11T00:16:02.768Z,6.76
2019-04-11T00:18:32.500Z,6.85
2019-04-11T00:21:02.007Z,6.75
2019-04-11T00:23:32.376Z,6.75
2019-04-11T00:26:05.001Z,6.74
2019-04-11T00:28:34.597Z,6.67
2019-04-11T00:31:04.330Z,6.67
2019-04-11T00:33:34.065Z,6.76
2019-04-11T00:36:04.226Z,6.79
2019-04-11T00:38:34.188Z,6.82
2019-04-11T00:41:03.854Z,6.86
2019-04-11T00:43:38.518Z,7.13
2019-04-11T00:46:04.540Z,7.16
2019-04-11T00:48:34.069Z,7.31
2019-04-11T00:51:03.621Z,7.32
2019-04-11T00:53:34.051Z,7.32
2019-04-11T00:56:04.092Z,7.33
2019-04-11T00:58:35.931Z,7.33
2019-04-11T01:01:07.209Z,7.29
2019-04-11T01:03:38.016Z,7.23
2019-04-11T01:06:07.895Z,7.23
2019-04-11T01:08:37.812Z,7.30
2019-04-11T01:11:07.855Z,7.16
2019-04-11T01:13:44.587Z,7.17
2019-04-11T01:16:11.197Z,7.20
2019-04-11T01:18:40.731Z,7.17
2019-04-11T01:21:10.385Z,7.23
2019-04-11T01:23:41.102Z,7.36
2019-04-11T01:26:12.781Z,7.48
2019-04-11T01:28:42.895Z,7.53
2019-04-11T01:31:17.731Z,7.57
2019-04-11T01:33:48.671Z,7.63
2019-04-11T01:36:18.530Z,7.58
2019-04-11T01:38:53.376Z,7.62
2019-04-11T01:41:22.796Z,7.51
2019-04-11T01:43:58.711Z,7.42
2019-04-11T01:46:24.409Z,7.34
2019-04-11T01:48:59.735Z,7.34
2019-04-11T01:51:29.642Z,7.36
2019-04-11T01:53:59.444Z,7.52
2019-04-11T01:56:29.400Z,7.47
2019-04-11T01:58:59.385Z,7.40
2019-04-11T02:01:30.689Z,7.42
2019-04-11T02:04:16.747Z,7.42
2019-04-11T02:06:46.327Z,7.33
2019-04-11T02:09:15.989Z,7.32
2019-04-11T02:11:45.751Z,7.37
2019-04-11T02:14:17.002Z,7.60
2019-04-11T02:16:47.384Z,7.70
2019-04-11T02:19:18.212Z,7.62
2019-04-11T02:21:49.638Z,7.70
2019-04-11T02:24:20.964Z,7.71
2019-04-11T02:26:52.482Z,7.86
2019-04-11T02:29:21.939Z,7.82
2019-04-11T02:31:52.871Z,7.92
2019-04-11T02:34:23.496Z,7.87
2019-04-11T02:36:53.708Z,7.91
2019-04-11T02:39:26.836Z,7.93
2019-04-11T02:41:56.943Z,7.92
2019-04-11T02:44:36.559Z,7.77
2019-04-11T02:47:07.506Z,7.64
2019-04-11T02:49:31.199Z,7.83
2019-04-11T02:52:02.701Z,7.93
2019-04-11T02:54:33.565Z,7.95
2019-04-11T02:57:03.405Z,8.04
2019-04-11T02:59:34.505Z,8.07
2019-04-11T03:02:06.783Z,7.96
2019-04-11T03:04:37.068Z,7.85
2019-04-11T03:07:08.021Z,7.81
2019-04-11T03:09:39.253Z,7.92
2019-04-11T03:12:09.440Z,7.90
2019-04-11T03:15:02.250Z,8.04
2019-04-11T03:17:19.676Z,8.20
2019-04-11T03:19:59.464Z,8.07
2019-04-11T03:22:16.062Z,7.95
2019-04-11T03:24:48.994Z,7.77
2019-04-11T03:27:20.174Z,7.74
2019-04-11T03:29:51.595Z,7.85
2019-04-11T03:33:25.017Z,7.81
2019-04-11T03:35:45.512Z,7.94
2019-04-11T03:37:50.064Z,7.83
2019-04-11T03:40:17.323Z,7.97
2019-04-11T03:42:43.068Z,7.95
2019-04-11T03:45:22.681Z,8.36
2019-04-11T03:47:44.654Z,8.13
2019-04-11T03:50:10.726Z,8.31
2019-04-11T03:52:36.639Z,8.20
2019-04-11T03:55:08.323Z,8.11
2019-04-11T03:57:39.454Z,7.91
2019-04-11T04:00:10.283Z,7.96
2019-04-11T04:02:41.316Z,8.02
2019-04-11T04:05:18.222Z,7.90
2019-04-11T04:07:48.897Z,7.90
2019-04-11T04:10:20.628Z,8.18
2019-04-11T04:12:51.702Z,8.08
2019-04-11T04:15:54.038Z,8.10
2019-04-11T04:18:23.695Z,8.21
2019-04-11T04:20:54.948Z,8.39
2019-04-11T04:23:34.172Z,8.47
2019-04-11T04:26:05.489Z,8.65
2019-04-11T04:28:35.768Z,8.73
2019-04-11T04:31:06.914Z,8.84
2019-04-11T04:33:39.492Z,8.87
2019-04-11T04:36:10.768Z,8.90
2019-04-11T04:38:41.488Z,8.85
2019-04-11T04:41:23.901Z,8.87
2019-04-11T04:43:45.921Z,8.94
2019-04-11T04:46:31.325Z,9.04
2019-04-11T04:48:47.768Z,9.10
2019-04-11T04:51:19.988Z,9.11
2019-04-11T04:53:50.139Z,8.97
2019-04-11T04:56:24.074Z,8.93
2019-04-11T04:58:50.976Z,8.99
2019-04-11T05:01:21.757Z,9.04
2019-04-11T05:03:51.817Z,9.06
2019-04-11T05:06:23.982Z,9.04
2019-04-11T05:08:56.018Z,9.12
2019-04-11T05:11:26.259Z,9.00
2019-04-11T05:13:56.714Z,9.12
2019-04-11T05:16:26.537Z,9.09
2019-04-11T05:18:56.691Z,9.09
2019-04-11T05:26:33.380Z,9.00
2019-04-11T05:28:31.860Z,9.12
2019-04-11T05:31:08.069Z,9.07
2019-04-11T05:33:43.390Z,9.01
2019-04-11T05:36:15.159Z,8.96
2019-04-11T05:41:49.970Z,8.81
2019-04-11T05:44:20.932Z,8.79
2019-04-11T05:47:19.991Z,8.75
2019-04-11T05:54:23.877Z,8.90
2019-04-11T05:57:03.188Z,8.90
2019-04-11T05:59:34.790Z,8.89
2019-04-11T06:02:21.404Z,8.89
2019-04-11T06:04:58.540Z,8.89
2019-04-11T06:07:40.047Z,9.01
2019-04-11T06:10:14.769Z,8.97
2019-04-11T06:14:05.369Z,8.87
2019-04-11T06:19:20.623Z,8.79
2019-04-11T06:25:06.188Z,8.83
2019-04-11T06:28:06.110Z,8.89
2019-04-11T06:30:52.726Z,8.78
2019-04-11T06:33:32.386Z,8.87
2019-04-11T06:36:18.779Z,8.81
2019-04-11T06:38:56.726Z,8.86
2019-04-11T06:41:54.822Z,8.86
2019-04-11T06:44:41.696Z,8.93
2019-04-11T06:50:15.746Z,8.82
2019-04-11T06:52:49.135Z,8.80
2019-04-11T06:55:22.504Z,8.86
2019-04-11T06:58:41.075Z,9.02
2019-04-11T07:01:03.907Z,9.04
2019-04-11T07:03:44.989Z,9.05
2019-04-11T07:06:31.409Z,9.15
2019-04-11T07:09:09.529Z,9.27
2019-04-11T07:11:50.726Z,9.36
2019-04-11T07:14:50.713Z,9.48
2019-04-11T07:18:07.463Z,9.57
2019-04-11T07:20:46.266Z,9.67
2019-04-11T07:23:33.504Z,9.61
2019-04-11T07:26:13.561Z,9.52
2019-04-11T07:28:47.970Z,9.56
2019-04-11T07:32:04.954Z,9.74
2019-04-11T07:34:43.729Z,9.75
2019-04-11T07:37:21.414Z,9.86
2019-04-11T07:40:13.265Z,9.91
2019-04-11T07:42:52.238Z,9.84
2019-04-11T07:45:29.916Z,9.92
2019-04-11T07:48:38.897Z,10.03
2019-04-11T07:51:23.331Z,10.30
2019-04-11T07:54:09.266Z,10.23
2019-04-11T07:56:47.111Z,10.26
2019-04-11T08:00:03.792Z,10.35
2019-04-11T08:04:59.035Z,10.51
2019-04-11T08:12:23.700Z,10.83
2019-04-11T08:18:41.073Z,10.96
2019-04-11T08:27:51.898Z,11.15
2019-04-11T08:30:13.394Z,11.20
2019-04-11T08:33:16.179Z,11.35
2019-04-11T08:39:31.180Z,11.53
2019-04-11T08:42:03.208Z,11.45
2019-04-11T08:44:34.119Z,11.53
2019-04-11T08:50:08.093Z,11.77
2019-04-11T08:52:52.034Z,11.47
2019-04-11T08:58:40.627Z,11.49
2019-04-11T09:01:15.932Z,11.51
2019-04-11T09:05:15.707Z,11.74
2019-04-11T09:07:14.941Z,11.95
2019-04-11T09:10:12.082Z,11.84
2019-04-11T09:12:53.078Z,11.97
2019-04-11T09:16:01.404Z,11.94
2019-04-11T09:22:10.912Z,11.84
2019-04-11T09:24:43.557Z,11.63
2019-04-11T09:27:33.029Z,11.79
2019-04-11T09:30:04.535Z,11.82
2019-04-11T09:32:37.635Z,11.98
2019-04-11T09:35:27.217Z,11.93
2019-04-11T09:38:04.427Z,11.98
2019-04-11T09:40:41.760Z,11.98
2019-04-11T09:43:19.534Z,11.99
2019-04-11T09:46:00.096Z,12.23
2019-04-11T09:48:37.914Z,12.32
2019-04-11T09:51:18.371Z,12.20
2019-04-11T09:53:52.888Z,12.14
2019-04-11T09:56:24.202Z,12.44
2019-04-11T09:58:56.111Z,12.31
2019-04-11T10:01:30.916Z,12.12
2019-04-11T10:04:06.445Z,12.36
2019-04-11T10:06:38.839Z,12.60
2019-04-11T10:09:11.479Z,12.56
2019-04-11T10:11:59.056Z,12.84
2019-04-11T10:14:35.088Z,12.90
2019-04-11T10:17:13.081Z,12.76
2019-04-11T10:19:46.991Z,12.84
2019-04-11T10:22:34.090Z,12.89
2019-04-11T10:25:07.149Z,13.07
2019-04-11T10:27:51.032Z,13.10
2019-04-11T10:30:38.302Z,13.31
2019-04-11T10:33:15.542Z,13.12
2019-04-11T10:36:00.823Z,13.24
2019-04-11T10:38:41.459Z,13.27
2019-04-11T10:41:37.913Z,13.24
2019-04-11T10:44:11.697Z,13.16
2019-04-11T10:46:56.390Z,13.48
2019-04-11T10:49:44.215Z,13.70
2019-04-11T10:52:28.676Z,13.85
2019-04-11T10:55:00.848Z,13.98
2019-04-11T10:57:32.967Z,13.73
2019-04-11T11:00:15.585Z,13.64
2019-04-11T11:02:47.452Z,13.42
2019-04-11T11:05:20.368Z,13.35
2019-04-11T11:07:50.975Z,13.03
2019-04-11T11:10:22.172Z,13.04
2019-04-11T11:12:53.800Z,13.46
2019-04-11T11:15:25.354Z,13.61
2019-04-11T11:18:38.189Z,13.48
2019-04-11T11:20:54.604Z,13.35
2019-04-11T11:23:39.136Z,13.33
2019-04-11T11:26:22.618Z,13.24
2019-04-11T11:28:55.246Z,13.20
2019-04-11T11:31:38.668Z,13.22
2019-04-11T11:34:17.418Z,13.23
2019-04-11T11:36:49.990Z,13.71
2019-04-11T11:39:33.528Z,13.43
2019-04-11T11:42:22.014Z,13.54
2019-04-11T11:44:59.531Z,13.14
2019-04-11T11:47:46.915Z,12.77
2019-04-11T11:50:26.694Z,13.02
2019-04-11T11:53:04.843Z,13.19
2019-04-11T11:55:34.026Z,13.22
2019-04-11T11:58:21.586Z,13.42
2019-04-11T12:00:55.551Z,13.87
2019-04-11T12:03:35.170Z,14.30
2019-04-11T12:06:07.259Z,14.14
2019-04-11T12:08:39.206Z,13.84
2019-04-11T12:11:10.479Z,13.98
2019-04-11T12:13:45.312Z,13.75
2019-04-11T12:16:21.354Z,13.80
2019-04-11T12:18:54.600Z,13.60
2019-04-11T12:21:31.788Z,13.62
2019-04-11T12:24:26.270Z,13.44
2019-04-11T12:27:06.680Z,13.68
2019-04-11T12:29:57.591Z,13.84
2019-04-11T12:32:34.863Z,14.27
2019-04-11T12:35:08.175Z,14.36
2019-04-11T12:37:39.633Z,14.59
2019-04-11T12:40:57.092Z,14.52
2019-04-11T12:43:52.646Z,14.57
2019-04-11T12:49:12.596Z,14.20
2019-04-11T12:52:01.148Z,14.35
2019-04-11T12:54:36.194Z,14.63
2019-04-11T12:57:23.440Z,14.59
2019-04-11T13:03:36.408Z,15.36
2019-04-11T13:06:08.765Z,15.37
2019-04-11T13:08:42.629Z,15.34
2019-04-11T13:11:25.513Z,15.23
2019-04-11T13:14:08.466Z,15.31
2019-04-11T13:16:41.485Z,15.48
2019-04-11T13:19:31.386Z,15.79
2019-04-11T13:22:12.834Z,15.36
2019-04-11T13:24:46.987Z,15.63
2019-04-11T13:27:22.080Z,15.18
2019-04-11T13:29:54.164Z,15.17
2019-04-11T13:32:28.385Z,15.35
2019-04-11T13:35:01.183Z,15.30
2019-04-11T13:37:59.443Z,15.26
2019-04-11T13:40:45.077Z,15.28
2019-04-11T13:43:32.789Z,15.03
2019-04-11T13:46:15.779Z,14.85
2019-04-11T13:49:04.715Z,14.86
2019-04-11T13:51:39.186Z,15.19
2019-04-11T13:54:24.625Z,15.07
2019-04-11T13:57:04.874Z,14.82
2019-04-11T13:59:36.173Z,14.58
2019-04-11T14:02:20.605Z,14.60
2019-04-11T14:05:03.964Z,14.35
2019-04-11T14:07:34.247Z,14.23
2019-04-11T14:10:10.324Z,14.18
2019-04-11T14:12:40.374Z,13.99
2019-04-11T14:15:20.555Z,14.38
2019-04-11T14:18:11.500Z,14.45
2019-04-11T14:21:02.687Z,14.81
2019-04-11T14:23:51.051Z,14.68
2019-04-11T14:29:03.829Z,14.71
2019-04-11T14:31:43.735Z,14.78
2019-04-11T14:34:29.728Z,14.97
2019-04-11T14:37:00.954Z,15.00
2019-04-11T14:39:46.989Z,15.14
2019-04-11T14:42:24.066Z,14.98
2019-04-11T14:44:55.507Z,15.06
2019-04-11T14:47:39.292Z,14.89
2019-04-11T14:50:11.833Z,14.87
2019-04-11T14:52:58.882Z,14.96
2019-04-11T14:55:28.513Z,14.95
2019-04-11T14:58:02.880Z,14.91
2019-04-11T15:00:34.031Z,14.81
2019-04-11T15:03:10.584Z,14.96
2019-04-11T15:05:50.745Z,15.06
2019-04-11T15:08:30.528Z,15.16
2019-04-11T15:11:38.892Z,15.17
2019-04-11T15:14:26.301Z,15.12
2019-04-11T15:16:57.430Z,15.08
2019-04-11T15:19:27.568Z,14.75
2019-04-11T15:22:16.430Z,15.02
2019-04-11T15:24:47.610Z,15.10
2019-04-11T15:27:21.686Z,15.06
2019-04-11T15:29:51.130Z,15.16
2019-04-11T15:32:25.744Z,15.06
2019-04-11T15:34:56.955Z,14.90
2019-04-11T15:37:28.244Z,14.78
2019-04-11T15:39:59.847Z,14.75
2019-04-11T15:42:40.467Z,14.72
2019-04-11T15:45:13.536Z,14.85
2019-04-11T15:47:51.090Z,14.69
2019-04-11T15:50:38.578Z,14.63
2019-04-11T15:53:08.139Z,14.47
2019-04-11T15:55:55.648Z,14.45
2019-04-11T15:58:26.888Z,14.49
2019-04-11T16:00:59.198Z,14.50
2019-04-11T16:03:28.622Z,14.44
2019-04-11T16:06:05.869Z,14.33
2019-04-11T16:08:43.323Z,14.34
2019-04-11T16:11:15.547Z,14.25
2019-04-11T16:13:53.186Z,14.20
2019-04-11T16:16:24.317Z,14.14
2019-04-11T16:18:55.389Z,14.14
2019-04-11T16:21:42.685Z,14.01
2019-04-11T16:24:31.516Z,13.87
2019-04-11T16:27:17.912Z,13.90
2019-04-11T16:29:54.800Z,13.71
2019-04-11T16:32:26.011Z,13.63
2019-04-11T16:35:12.327Z,13.32
2019-04-11T16:37:47.686Z,13.24
2019-04-11T16:40:20.903Z,13.13
2019-04-11T16:42:53.660Z,13.30
2019-04-11T16:45:25.094Z,13.10
2019-04-11T16:48:01.945Z,12.81
2019-04-11T16:50:31.959Z,12.94
2019-04-11T16:53:05.852Z,12.72
2019-04-11T16:55:36.931Z,12.43
2019-04-11T16:58:06.619Z,12.29
2019-04-11T17:00:36.185Z,12.21
2019-04-11T17:03:05.787Z,12.04
2019-04-11T17:05:37.046Z,11.93
2019-04-11T17:08:25.987Z,11.96
2019-04-11T17:10:59.814Z,11.75
2019-04-11T17:13:32.383Z,11.87
2019-04-11T17:16:02.616Z,11.85
2019-04-11T17:18:34.384Z,11.61
2019-04-11T17:21:05.829Z,11.55
2019-04-11T17:23:34.690Z,11.59
2019-04-11T17:26:04.391Z,11.65
2019-04-11T17:28:34.360Z,11.48
2019-04-11T17:31:06.737Z,11.42
2019-04-11T17:33:36.533Z,11.35
2019-04-11T17:36:06.227Z,11.13
2019-04-11T17:38:37.143Z,11.20
2019-04-11T17:41:10.962Z,11.20
2019-04-11T17:43:38.751Z,11.29
2019-04-11T17:46:08.997Z,11.27
2019-04-11T17:48:40.227Z,11.38
2019-04-11T17:51:11.476Z,11.35
2019-04-11T17:53:42.295Z,11.25
2019-04-11T17:59:28.050Z,11.59
2019-04-11T18:02:15.875Z,11.44
2019-04-11T18:07:46.991Z,11.45
2019-04-11T18:10:15.812Z,11.55
2019-04-11T18:12:46.095Z,11.54
2019-04-11T18:15:15.847Z,11.67
2019-04-11T18:17:48.321Z,11.59
2019-04-11T18:20:18.068Z,11.55
2019-04-11T18:22:50.362Z,11.59
2019-04-11T18:25:20.909Z,11.57
2019-04-11T18:27:52.410Z,11.66
2019-04-11T18:30:23.311Z,11.70
2019-04-11T18:32:54.979Z,11.65
2019-04-11T18:35:26.050Z,11.62
2019-04-11T18:37:55.619Z,11.55
2019-04-11T18:40:25.359Z,11.66
2019-04-11T18:42:54.854Z,11.58
2019-04-11T18:45:24.510Z,11.46
2019-04-11T18:47:54.186Z,11.54
2019-04-11T18:50:23.776Z,11.59
2019-04-11T18:53:05.010Z,11.47
2019-04-11T18:55:34.648Z,11.52
2019-04-11T18:58:04.953Z,11.62
2019-04-11T19:00:35.793Z,11.50
2019-04-11T19:03:08.066Z,11.55
2019-04-11T19:05:42.731Z,11.64
2019-04-11T19:08:12.895Z,11.77
2019-04-11T19:10:42.980Z,11.83
2019-04-11T19:13:16.684Z,11.78
2019-04-11T19:15:45.705Z,11.82
2019-04-11T19:18:16.409Z,11.85
2019-04-11T19:20:50.076Z,11.82
2019-04-11T19:23:20.498Z,11.77
2019-04-11T19:25:51.026Z,11.73
2019-04-11T19:28:20.626Z,11.66
2019-04-11T19:30:50.301Z,11.67
2019-04-11T19:33:20.235Z,11.63
2019-04-11T19:35:49.821Z,11.67
2019-04-11T19:38:31.566Z,11.59
2019-04-11T19:41:01.139Z,11.48
2019-04-11T19:43:32.176Z,11.60
2019-04-11T19:46:01.816Z,11.53
2019-04-11T19:48:31.427Z,11.51
2019-04-11T19:51:00.922Z,11.42
2019-04-11T19:53:32.964Z,11.39
2019-04-11T19:56:21.757Z,11.32
2019-04-11T19:58:51.402Z,11.28
2019-04-11T20:01:23.456Z,11.20
2019-04-11T20:03:54.015Z,11.15
2019-04-11T20:06:23.789Z,11.15
2019-04-11T20:08:53.472Z,11.10
2019-04-11T20:11:23.041Z,11.12
2019-04-11T20:13:53.005Z,11.05
2019-04-11T20:16:22.863Z,11.07
2019-04-11T20:18:56.741Z,11.01
2019-04-11T20:21:25.462Z,10.99
2019-04-11T20:23:55.254Z,10.97
2019-04-11T20:26:24.735Z,10.99
2019-04-11T20:28:54.849Z,11.09
2019-04-11T20:31:24.453Z,11.19
2019-04-11T20:33:57.074Z,11.16
2019-04-11T20:36:33.361Z,11.16
2019-04-11T20:38:57.730Z,11.09
2019-04-11T20:41:27.226Z,11.21
2019-04-11T20:43:57.222Z,11.16
2019-04-11T20:46:29.190Z,11.15
2019-04-11T20:48:58.119Z,11.27
2019-04-11T20:51:27.878Z,11.26
2019-04-11T20:53:57.302Z,11.33
2019-04-11T20:56:26.999Z,11.35
2019-04-11T20:58:56.631Z,11.39
2019-04-11T21:01:26.782Z,11.37
2019-04-11T21:04:00.095Z,11.41
2019-04-11T21:06:31.673Z,11.47
2019-04-11T21:09:02.834Z,11.49
2019-04-11T21:11:31.437Z,11.52
2019-04-11T21:14:01.091Z,11.52
2019-04-11T21:16:30.583Z,11.50
2019-04-11T21:18:59.995Z,11.49
2019-04-11T21:21:29.494Z,11.38
2019-04-11T21:24:00.383Z,11.35
2019-04-11T21:26:30.168Z,11.34
2019-04-11T21:28:59.726Z,11.24
2019-04-11T21:31:31.073Z,11.12
2019-04-11T21:34:02.322Z,11.25
2019-04-11T21:36:32.268Z,11.10
2019-04-11T21:39:03.806Z,10.99
2019-04-11T21:41:36.302Z,10.67
2019-04-11T21:44:07.016Z,10.82
2019-04-11T21:46:38.167Z,10.70
2019-04-11T21:49:07.747Z,10.66
2019-04-11T21:51:41.387Z,10.67
2019-04-11T21:54:08.623Z,10.67
2019-04-11T21:56:38.163Z,10.87
2019-04-11T21:59:07.666Z,10.67
2019-04-11T22:01:40.060Z,10.49
2019-04-11T22:04:10.123Z,10.39
2019-04-11T22:06:39.690Z,10.13
2019-04-11T22:09:09.918Z,10.14
2019-04-11T22:11:39.578Z,10.09
2019-04-11T22:14:11.182Z,10.18
2019-04-11T22:16:44.103Z,10.09
2019-04-11T22:19:13.995Z,9.97
2019-04-11T22:21:45.296Z,9.88
2019-04-11T22:24:15.725Z,9.74
2019-04-11T22:26:50.121Z,9.82
2019-04-11T22:29:17.558Z,9.81
2019-04-11T22:31:47.147Z,9.68
2019-04-11T22:34:25.999Z,9.62
2019-04-11T22:36:59.556Z,9.64
2019-04-11T22:39:28.983Z,9.70
2019-04-11T22:41:58.342Z,9.88
2019-04-11T22:44:27.992Z,9.87
2019-04-11T22:46:57.610Z,9.58
2019-04-11T22:49:27.164Z,9.49
2019-04-11T22:51:56.722Z,9.42
2019-04-11T22:54:26.312Z,9.35
2019-04-11T22:56:55.964Z,9.24
2019-04-11T22:59:25.453Z,9.09
2019-04-11T23:01:59.669Z,9.06
2019-04-11T23:04:29.367Z,8.97
2019-04-11T23:06:59.194Z,8.90
2019-04-11T23:09:28.734Z,9.08
2019-04-11T23:11:58.211Z,8.77
2019-04-11T23:14:27.823Z,8.93
2019-04-11T23:16:57.279Z,8.88
2019-04-11T23:19:26.766Z,8.88
2019-04-11T23:21:56.218Z,8.75
2019-04-11T23:24:25.919Z,8.63
2019-04-11T23:26:55.400Z,8.56
2019-04-11T23:29:24.850Z,8.78
2019-04-11T23:31:54.327Z,8.57
2019-04-11T23:34:24.351Z,8.51
2019-04-11T23:36:53.814Z,8.25
2019-04-11T23:39:23.530Z,8.12
2019-04-11T23:41:53.067Z,8.11
2019-04-11T23:44:23.658Z,8.25
2019-04-11T23:46:53.152Z,8.12
2019-04-11T23:49:25.192Z,7.99
2019-04-11T23:51:55.874Z,7.95
2019-04-11T23:54:28.995Z,7.67
2019-04-11T23:57:00.673Z,7.79
2019-04-11T23:59:32.135Z,7.58
